Time;durP1;ratioP1;P1;durP2;ratioP2;P2;SDS_P1;SDS_P2;PMS_P1;PMS_P2;Temp;Humidity;BMP_temperature;BMP_pressure;BME280_temperature;BME280_humidity;BME280_pressure;Samples;Min_cycle;Max_cycle;Signal;HPM_P1;HPM_P2
2022/07/15 00:02:06;;;;;;;8.50;7.28;;;;;;;18.26;78.09;98256.50;5091552;28;20020;-82
2022/07/15 00:04:32;;;;;;;7.85;7.10;;;;;;;18.23;76.98;98258.03;5091159;28;20095;-82
2022/07/15 00:06:58;;;;;;;6.78;6.18;;;;;;;18.19;77.37;98254.34;5092389;28;20012;-80
2022/07/15 00:10:13;;;;;;;7.68;6.20;;;;;;;18.15;77.61;98256.19;5091993;28;20031;-82
2022/07/15 00:12:10;;;;;;;8.63;6.38;;;;;;;18.07;77.83;98257.97;5090588;28;20135;-81
2022/07/15 00:14:36;;;;;;;7.45;6.20;;;;;;;18.02;77.22;98249.88;5090735;28;20476;-82
2022/07/15 00:17:01;;;;;;;6.00;5.40;;;;;;;17.98;77.14;98249.72;5091039;28;20077;-82
2022/07/15 00:19:27;;;;;;;6.72;5.50;;;;;;;17.97;77.38;98239.78;5090522;28;20036;-81
2022/07/15 00:21:52;;;;;;;7.53;5.88;;;;;;;17.96;77.74;98232.63;5090613;28;20028;-80
2022/07/15 00:24:18;;;;;;;6.32;5.72;;;;;;;17.94;78.29;98239.69;5090466;28;20757;-80
2022/07/15 00:26:43;;;;;;;7.05;6.35;;;;;;;17.88;77.77;98239.16;5090252;28;20387;-82
2022/07/15 00:29:09;;;;;;;7.32;6.47;;;;;;;17.84;77.54;98238.22;5072352;28;20376;-84
2022/07/15 00:31:34;;;;;;;7.78;6.97;;;;;;;17.82;77.49;98229.44;5091253;28;20024;-81
2022/07/15 00:34:00;;;;;;;10.00;8.10;;;;;;;17.80;78.90;98235.34;5092921;28;20027;-83
2022/07/15 00:36:25;;;;;;;9.30;8.30;;;;;;;17.73;77.76;98223.22;5092293;28;20099;-83
2022/07/15 00:38:50;;;;;;;11.75;10.52;;;;;;;17.71;77.97;98234.69;5091264;28;20043;-83
2022/07/15 00:41:16;;;;;;;10.02;8.55;;;;;;;17.69;79.21;98237.00;5091271;28;20027;-82
2022/07/15 00:43:41;;;;;;;12.80;11.10;;;;;;;17.61;78.57;98238.72;5091160;28;20053;-84
2022/07/15 00:46:07;;;;;;;12.65;11.18;;;;;;;17.56;78.31;98231.44;5091277;28;20025;-83
2022/07/15 00:48:32;;;;;;;12.63;11.32;;;;;;;17.54;78.41;98224.63;5091447;28;20107;-84
2022/07/15 00:50:59;;;;;;;13.13;11.18;;;;;;;17.53;79.42;98236.88;5090636;28;20036;-81
2022/07/15 00:53:28;;;;;;;14.65;12.10;;;;;;;17.51;78.29;98228.13;5089666;28;20081;-83
2022/07/15 00:55:59;;;;;;;15.10;13.50;;;;;;;17.48;78.40;98234.34;5092022;28;20040;-84
2022/07/15 00:58:26;;;;;;;14.50;11.82;;;;;;;17.46;78.47;98242.22;5091414;28;20115;-80
2022/07/15 01:00:54;;;;;;;16.33;13.80;;;;;;;17.44;77.56;98245.31;5088634;28;20034;-82
2022/07/15 01:03:20;;;;;;;14.25;12.77;;;;;;;17.44;77.90;98239.78;5090264;28;20073;-81
2022/07/15 01:05:47;;;;;;;16.02;12.77;;;;;;;17.50;78.04;98240.38;5089850;28;20556;-82
2022/07/15 01:08:17;;;;;;;14.93;12.90;;;;;;;17.54;77.85;98239.31;5088718;28;20032;-82
2022/07/15 01:10:43;;;;;;;14.98;13.20;;;;;;;17.59;77.46;98245.78;5092035;28;20027;-82
2022/07/15 01:13:09;;;;;;;14.25;11.82;;;;;;;17.61;77.40;98235.94;5072813;28;20107;-82
2022/07/15 01:15:35;;;;;;;12.10;10.73;;;;;;;17.63;77.57;98233.63;5090825;28;20491;-82
2022/07/15 01:18:02;;;;;;;12.88;11.05;;;;;;;17.65;77.56;98238.84;5092357;28;20816;-83
2022/07/15 01:20:28;;;;;;;12.88;10.80;;;;;;;17.65;77.33;98253.50;5091037;28;20119;-83
2022/07/15 01:22:53;;;;;;;12.27;10.20;;;;;;;17.61;77.90;98243.47;5086445;28;20388;-82
2022/07/15 01:25:19;;;;;;;10.25;9.15;;;;;;;17.58;78.14;98238.63;5088263;28;20028;-83
2022/07/15 01:27:44;;;;;;;10.30;8.65;;;;;;;17.51;78.23;98240.00;5091157;28;20543;-83
2022/07/15 01:30:11;;;;;;;10.05;7.63;;;;;;;17.48;79.21;98231.59;5091193;28;20449;-81
2022/07/15 01:32:37;;;;;;;9.98;8.70;;;;;;;17.40;78.14;98233.31;5090490;28;20024;-82
2022/07/15 01:35:03;;;;;;;10.60;8.25;;;;;;;17.33;77.93;98228.34;5090810;28;20514;-82
2022/07/15 01:37:28;;;;;;;9.25;7.93;;;;;;;17.29;78.49;98229.41;5090980;28;20388;-82
2022/07/15 01:39:54;;;;;;;7.97;6.90;;;;;;;17.25;78.18;98238.41;5090768;28;20027;-81
2022/07/15 01:42:19;;;;;;;8.18;7.28;;;;;;;17.19;78.70;98241.75;5090100;28;20454;-81
2022/07/15 01:44:45;;;;;;;7.75;6.90;;;;;;;17.14;77.97;98241.97;5090351;28;20028;-81
2022/07/15 01:47:10;;;;;;;8.65;6.88;;;;;;;17.09;78.18;98240.25;5090654;28;20032;-83
2022/07/15 01:49:36;;;;;;;8.15;6.72;;;;;;;17.04;78.03;98246.00;5072420;28;20028;-81
2022/07/15 01:52:03;;;;;;;13.93;6.40;;;;;;;16.99;78.55;98254.53;5072337;28;20047;-81
2022/07/15 01:54:32;;;;;;;10.40;6.47;;;;;;;16.91;78.25;98250.69;5087021;28;20028;-81
2022/07/15 01:56:58;;;;;;;8.00;6.47;;;;;;;16.86;78.09;98248.97;5089495;28;20032;-81
2022/07/15 01:59:24;;;;;;;7.70;6.25;;;;;;;16.80;78.17;98253.91;5089292;28;20035;-82
2022/07/15 02:01:51;;;;;;;8.07;6.40;;;;;;;16.73;78.22;98253.66;5087443;28;20024;-82
2022/07/15 02:04:17;;;;;;;8.43;6.30;;;;;;;16.69;78.19;98263.00;5071164;28;20428;-80
2022/07/15 02:06:44;;;;;;;7.65;6.30;;;;;;;16.62;77.92;98260.78;5090026;28;20111;-83
2022/07/15 02:09:10;;;;;;;8.57;6.65;;;;;;;16.56;78.24;98274.00;5088660;28;20027;-82
2022/07/15 02:11:35;;;;;;;7.45;6.35;;;;;;;16.50;78.41;98265.13;5089530;28;20058;-82
2022/07/15 02:14:02;;;;;;;9.55;6.60;;;;;;;16.45;78.47;98265.34;5089349;28;20028;-81
2022/07/15 02:16:32;;;;;;;7.95;6.40;;;;;;;16.44;78.96;98272.00;5090243;28;20043;-81
2022/07/15 02:18:58;;;;;;;8.63;7.00;;;;;;;16.44;78.80;98285.06;5088030;28;20044;-80
2022/07/15 02:21:26;;;;;;;11.93;7.68;;;;;;;16.46;79.31;98283.56;5089197;28;20047;-79
2022/07/15 02:23:52;;;;;;;11.25;7.60;;;;;;;16.46;79.67;98291.88;5088900;28;20032;-79
2022/07/15 02:26:18;;;;;;;9.57;7.80;;;;;;;16.49;79.21;98299.50;5089742;28;20016;-83
2022/07/15 02:28:44;;;;;;;14.40;10.65;;;;;;;16.51;79.65;98291.66;5071955;28;20024;-82
2022/07/15 02:31:09;;;;;;;11.93;9.88;;;;;;;16.50;78.87;98294.78;5089581;28;20380;-78
2022/07/15 02:33:35;;;;;;;103.65;45.58;;;;;;;16.49;79.30;98307.78;5089352;28;20036;-78
2022/07/15 02:36:00;;;;;;;20.77;12.20;;;;;;;16.48;79.14;98302.63;5084290;28;20055;-76
2022/07/15 02:38:26;;;;;;;10.90;8.98;;;;;;;16.45;78.98;98304.09;5088572;28;20067;-78
2022/07/15 02:40:51;;;;;;;11.75;8.55;;;;;;;16.41;78.77;98316.19;5089893;28;20066;-78
2022/07/15 02:43:17;;;;;;;10.82;8.15;;;;;;;16.40;79.39;98312.59;5087600;28;20036;-78
2022/07/15 02:45:42;;;;;;;11.10;9.48;;;;;;;16.34;79.72;98314.75;5089303;28;20063;-79
2022/07/15 02:48:08;;;;;;;10.88;9.40;;;;;;;16.28;79.16;98316.13;5089929;28;20047;-78
2022/07/15 02:50:34;;;;;;;10.20;8.32;;;;;;;16.19;78.72;98307.88;5088681;28;20086;-77
2022/07/15 02:53:01;;;;;;;12.85;9.35;;;;;;;16.11;78.72;98319.00;5089163;28;20099;-78
2022/07/15 02:55:26;;;;;;;12.85;9.18;;;;;;;16.01;79.13;98321.03;5085584;28;20472;-78
2022/07/15 02:57:52;;;;;;;12.40;8.60;;;;;;;15.91;78.47;98325.00;5086405;28;20020;-79
2022/07/15 03:00:19;;;;;;;11.38;9.07;;;;;;;15.84;78.90;98332.16;5087480;28;20125;-78
2022/07/15 03:02:45;;;;;;;12.23;10.68;;;;;;;15.75;79.58;98333.03;5087721;28;20035;-78
2022/07/15 03:05:11;;;;;;;14.18;10.93;;;;;;;15.69;79.05;98336.31;5087866;28;20024;-78
2022/07/15 03:07:37;;;;;;;13.75;10.65;;;;;;;15.62;79.47;98337.66;5070123;28;20027;-79
2022/07/15 03:10:05;;;;;;;14.60;9.80;;;;;;;15.55;79.50;98339.31;5088117;28;20024;-78
2022/07/15 03:12:31;;;;;;;12.38;9.57;;;;;;;15.47;79.10;98344.56;5074493;28;20488;-78
2022/07/15 03:14:57;;;;;;;14.40;9.43;;;;;;;15.41;79.66;98339.56;5093176;28;20028;-78
2022/07/15 03:17:23;;;;;;;13.88;9.52;;;;;;;15.36;79.49;98350.78;5093408;28;20110;-78
2022/07/15 03:19:48;;;;;;;12.45;9.98;;;;;;;15.31;80.40;98371.91;5093430;28;20051;-78
2022/07/15 03:22:14;;;;;;;14.93;9.85;;;;;;;15.24;79.77;98366.09;5093376;28;20028;-78
2022/07/15 03:24:39;;;;;;;13.68;9.30;;;;;;;15.22;81.00;98370.34;5092889;28;20059;-78
2022/07/15 03:27:05;;;;;;;16.73;10.00;;;;;;;15.15;79.83;98377.16;5092982;28;20388;-78
2022/07/15 03:29:30;;;;;;;12.13;10.13;;;;;;;15.11;80.14;98380.91;5092979;28;20034;-79
2022/07/15 03:31:56;;;;;;;12.95;10.20;;;;;;;15.03;80.46;98379.78;5093343;28;20073;-77
2022/07/15 03:34:22;;;;;;;12.25;8.88;;;;;;;14.97;80.28;98392.13;5093203;28;21002;-78
2022/07/15 03:36:47;;;;;;;12.43;10.13;;;;;;;14.92;80.33;98395.06;5093623;28;20024;-77
2022/07/15 03:39:13;;;;;;;10.43;9.32;;;;;;;14.86;80.37;98402.72;5092325;28;20016;-78
2022/07/15 03:41:38;;;;;;;12.77;9.82;;;;;;;14.83;80.31;98408.88;5092743;28;20024;-78
2022/07/15 03:44:04;;;;;;;11.13;9.77;;;;;;;14.78;79.95;98423.69;5092814;28;20024;-78
2022/07/15 03:46:30;;;;;;;12.95;9.57;;;;;;;14.74;80.73;98423.50;5093427;28;20062;-77
2022/07/15 03:48:56;;;;;;;10.55;8.07;;;;;;;14.70;80.18;98425.28;5093273;28;20074;-78
2022/07/15 03:51:24;;;;;;;12.27;8.10;;;;;;;14.68;79.94;98435.81;5092969;28;20138;-78
2022/07/15 03:53:50;;;;;;;11.80;7.93;;;;;;;14.67;80.37;98430.63;5092591;28;20162;-78
2022/07/15 03:56:16;;;;;;;10.90;7.45;;;;;;;14.65;80.40;98430.97;5092511;28;20064;-78
2022/07/15 03:58:44;;;;;;;11.50;7.05;;;;;;;14.65;79.75;98442.00;5092650;28;20500;-78
2022/07/15 04:01:10;;;;;;;10.48;6.68;;;;;;;14.65;79.64;98435.66;5091762;28;20027;-79
2022/07/15 04:03:35;;;;;;;11.15;7.68;;;;;;;14.66;79.40;98446.38;5091890;28;20020;-78
2022/07/15 04:06:01;;;;;;;11.70;8.43;;;;;;;14.65;79.35;98443.94;5092346;28;20043;-79
2022/07/15 04:08:26;;;;;;;13.88;8.05;;;;;;;14.63;79.03;98443.44;5092185;28;20605;-79
2022/07/15 04:10:52;;;;;;;9.57;6.75;;;;;;;14.64;79.28;98447.84;5091360;28;20030;-78
2022/07/15 04:13:18;;;;;;;9.48;6.70;;;;;;;14.64;78.60;98447.84;5092103;28;20110;-79
2022/07/15 04:15:46;;;;;;;16.40;9.43;;;;;;;14.65;78.85;98444.75;5090380;28;20043;-80
2022/07/15 04:18:12;;;;;;;15.48;9.02;;;;;;;14.66;78.53;98448.31;5092200;28;20048;-81
2022/07/15 04:20:37;;;;;;;16.90;9.63;;;;;;;14.69;78.33;98447.72;5090839;28;20036;-79
2022/07/15 04:23:03;;;;;;;23.50;13.18;;;;;;;14.71;78.54;98449.00;5090943;28;20020;-79
2022/07/15 04:25:30;;;;;;;21.30;10.77;;;;;;;14.76;77.87;98449.97;5091545;28;20519;-80
2022/07/15 04:27:56;;;;;;;19.05;10.57;;;;;;;14.80;78.13;98442.66;5092266;28;20028;-80
2022/07/15 04:30:21;;;;;;;23.95;10.60;;;;;;;14.85;77.89;98472.88;5092182;28;20090;-79
2022/07/15 04:32:47;;;;;;;10.68;6.50;;;;;;;14.88;78.14;98475.00;5091584;28;20112;-78
2022/07/15 04:35:12;;;;;;;14.30;7.03;;;;;;;14.86;77.49;98478.09;5091695;28;20788;-79
2022/07/15 04:37:38;;;;;;;10.70;6.43;;;;;;;14.87;78.00;98487.19;5091780;28;20099;-77
2022/07/15 04:40:07;;;;;;;10.50;6.00;;;;;;;14.85;78.02;98492.22;5092049;28;20028;-78
2022/07/15 04:42:32;;;;;;;8.90;5.93;;;;;;;14.81;77.86;98486.53;5091254;28;20024;-78
2022/07/15 04:44:58;;;;;;;11.45;5.50;;;;;;;14.75;78.06;98504.38;5091527;28;20093;-78
2022/07/15 04:47:23;;;;;;;9.93;5.30;;;;;;;14.71;77.79;98503.41;5091265;28;20024;-80
2022/07/15 04:52:33;;;;;;;9.82;5.28;;;;;;;14.71;77.79;98503.41;5091636;28;20105;-80
2022/07/15 04:54:59;;;;;;;9.07;5.05;;;;;;;14.70;77.64;98508.09;5091381;28;20551;-82
2022/07/15 04:57:24;;;;;;;7.00;4.65;;;;;;;14.71;77.91;98518.00;5073295;28;20057;-80
2022/07/15 04:59:50;;;;;;;10.48;4.50;;;;;;;14.74;77.81;98514.59;5091897;28;20035;-80
2022/07/15 05:02:16;;;;;;;8.73;4.45;;;;;;;14.74;77.48;98514.59;5089364;28;20106;-80
2022/07/15 05:04:41;;;;;;;10.80;4.30;;;;;;;14.78;77.27;98519.47;5089684;28;20544;-81
2022/07/15 05:07:07;;;;;;;7.07;4.00;;;;;;;14.83;77.34;98524.84;5088336;28;20029;-82
2022/07/15 05:09:33;;;;;;;6.90;3.47;;;;;;;14.81;76.92;98527.94;5087160;28;20446;-80
2022/07/15 05:11:59;;;;;;;7.55;3.80;;;;;;;14.82;76.98;98531.50;5072514;28;20063;-80
2022/07/15 05:14:25;;;;;;;7.95;3.85;;;;;;;14.81;76.88;98533.47;5085527;28;20055;-83
2022/07/15 05:16:50;;;;;;;7.93;3.40;;;;;;;14.80;76.70;98531.03;5091095;28;20020;-80
2022/07/15 05:19:16;;;;;;;9.60;3.35;;;;;;;14.83;76.73;98533.13;5089723;28;20052;-78
2022/07/15 05:21:41;;;;;;;8.90;3.25;;;;;;;14.84;76.65;98540.28;5090801;28;20046;-78
2022/07/15 05:24:07;;;;;;;6.40;3.10;;;;;;;14.85;76.27;98539.97;5088798;28;20464;-80
2022/07/15 05:26:32;;;;;;;7.03;3.05;;;;;;;14.82;76.38;98551.66;5090816;28;20513;-80
2022/07/15 05:28:58;;;;;;;5.22;3.13;;;;;;;14.82;76.43;98548.91;5071745;28;20078;-80
2022/07/15 05:31:24;;;;;;;8.52;3.30;;;;;;;14.84;75.90;98551.31;5090557;28;20083;-80
2022/07/15 05:33:49;;;;;;;8.07;3.40;;;;;;;14.81;75.63;98551.97;5089916;28;20450;-81
2022/07/15 05:36:15;;;;;;;7.32;3.00;;;;;;;14.80;75.63;98561.38;5090430;28;20047;-79
2022/07/15 05:38:43;;;;;;;7.70;3.10;;;;;;;14.77;75.58;98557.34;5090946;28;20023;-80
2022/07/15 05:41:08;;;;;;;6.88;3.10;;;;;;;14.76;75.36;98558.47;5090601;28;20038;-80
2022/07/15 05:43:35;;;;;;;13.15;3.22;;;;;;;14.76;75.65;98568.69;5072289;28;20547;-80
2022/07/15 05:46:00;;;;;;;6.22;3.05;;;;;;;14.74;75.68;98569.03;5090210;28;20026;-79
2022/07/15 05:48:26;;;;;;;8.85;2.90;;;;;;;14.76;75.59;98571.44;5089467;28;20028;-78
2022/07/15 05:50:51;;;;;;;7.05;3.28;;;;;;;14.74;74.87;98571.78;5090264;28;20084;-80
2022/07/15 05:53:17;;;;;;;6.57;3.33;;;;;;;14.72;75.01;98571.28;5070350;28;20020;-81
2022/07/15 05:55:42;;;;;;;8.82;2.97;;;;;;;14.73;75.06;98582.00;5089281;28;20045;-80
2022/07/15 05:58:08;;;;;;;7.50;2.90;;;;;;;14.79;74.86;98584.59;5089165;28;20024;-81
2022/07/15 06:00:35;;;;;;;4.57;2.65;;;;;;;14.84;74.94;98584.47;5090105;28;20032;-79
2022/07/15 06:03:01;;;;;;;8.88;3.42;;;;;;;14.93;74.96;98592.75;5090092;28;20024;-79
2022/07/15 06:05:28;;;;;;;8.13;3.83;;;;;;;14.97;74.73;98588.22;5090831;28;20084;-80
2022/07/15 06:07:53;;;;;;;6.20;3.50;;;;;;;15.02;74.88;98591.66;5088989;28;20039;-81
2022/07/15 06:10:19;;;;;;;7.10;2.85;;;;;;;15.09;74.48;98596.69;5089467;28;20469;-79
2022/07/15 06:12:45;;;;;;;5.60;2.90;;;;;;;15.15;74.43;98603.69;5089154;28;20016;-82
2022/07/15 06:15:10;;;;;;;9.25;2.95;;;;;;;15.15;73.67;98606.44;5089267;28;20489;-81
2022/07/15 06:17:36;;;;;;;5.90;2.67;;;;;;;15.17;73.59;98608.88;5090543;28;20089;-79
2022/07/15 06:20:02;;;;;;;8.45;2.63;;;;;;;15.20;73.54;98612.97;5065321;28;20049;-81
2022/07/15 06:22:28;;;;;;;7.00;2.58;;;;;;;15.22;73.07;98624.50;5065224;28;20123;-84
2022/07/15 06:24:53;;;;;;;6.88;2.00;;;;;;;15.24;72.92;98617.50;5067476;28;20036;-79
2022/07/15 06:27:21;;;;;;;5.35;2.05;;;;;;;15.27;72.83;98629.88;5070034;28;20431;-81
2022/07/15 06:29:48;;;;;;;4.30;2.25;;;;;;;15.33;72.65;98623.84;5067948;28;20028;-82
2022/07/15 06:32:14;;;;;;;4.05;1.88;;;;;;;15.38;71.71;98636.69;5070424;28;20507;-84
2022/07/15 06:34:39;;;;;;;3.28;1.85;;;;;;;15.37;71.25;98632.31;5070439;28;20024;-80
2022/07/15 06:37:05;;;;;;;3.30;1.60;;;;;;;15.41;70.75;98638.81;5070552;28;20076;-82
2022/07/15 06:39:31;;;;;;;5.18;1.80;;;;;;;15.43;71.02;98646.78;5070647;28;20016;-82
2022/07/15 06:41:57;;;;;;;4.97;1.60;;;;;;;15.49;70.89;98653.75;5068987;28;20060;-82
2022/07/15 06:44:22;;;;;;;3.78;1.58;;;;;;;15.56;70.79;98658.81;5070051;28;20052;-83
2022/07/15 06:46:48;;;;;;;4.50;1.30;;;;;;;15.60;70.49;98657.84;5051932;28;20473;-82
2022/07/15 06:49:14;;;;;;;3.97;1.35;;;;;;;15.63;68.96;98664.69;5069854;28;20469;-81
2022/07/15 06:51:40;;;;;;;4.25;1.40;;;;;;;15.61;68.33;98664.19;5070601;28;20029;-81
2022/07/15 06:54:07;;;;;;;4.22;1.67;;;;;;;15.64;69.67;98660.78;5071151;28;20028;-81
2022/07/15 06:56:33;;;;;;;6.68;1.90;;;;;;;15.71;69.59;98669.38;5070840;28;20052;-82
2022/07/15 06:58:59;;;;;;;1.50;1.00;;;;;;;15.78;67.90;98668.91;5071042;28;20020;-82
2022/07/15 07:01:24;;;;;;;3.60;1.02;;;;;;;15.77;67.90;98664.53;5071031;28;20038;-84
2022/07/15 07:03:50;;;;;;;2.63;1.10;;;;;;;15.82;67.28;98669.06;5071204;28;20012;-83
2022/07/15 07:06:15;;;;;;;2.42;1.15;;;;;;;15.84;66.90;98669.56;5069889;28;20119;-83
2022/07/15 07:08:40;;;;;;;2.10;1.10;;;;;;;15.87;66.55;98669.75;5071108;28;20024;-82
2022/07/15 07:11:06;;;;;;;3.13;1.20;;;;;;;15.91;66.78;98675.44;5070385;28;20036;-82
2022/07/15 07:13:31;;;;;;;2.45;1.40;;;;;;;15.98;66.98;98675.75;5069007;28;20040;-81
2022/07/15 07:15:57;;;;;;;3.70;1.20;;;;;;;16.11;66.97;98673.13;5070889;28;20061;-82
2022/07/15 07:18:22;;;;;;;4.78;1.20;;;;;;;16.19;66.64;98683.38;5067741;28;20037;-80
2022/07/15 07:20:48;;;;;;;3.75;1.13;;;;;;;16.25;65.58;98676.53;5091233;28;20024;-77
2022/07/15 07:23:13;;;;;;;4.80;1.10;;;;;;;16.29;66.28;98685.00;5089896;28;20016;-79
2022/07/15 07:25:39;;;;;;;4.57;1.27;;;;;;;16.36;66.14;98686.13;5091038;28;20036;-79
2022/07/15 07:28:04;;;;;;;4.28;1.50;;;;;;;16.47;66.07;98688.53;5072257;28;20040;-80
2022/07/15 07:30:31;;;;;;;6.03;1.55;;;;;;;16.60;65.92;98692.25;5090442;28;20028;-81
2022/07/15 07:32:56;;;;;;;3.97;1.40;;;;;;;16.71;65.53;98687.13;5090293;28;20020;-80
2022/07/15 07:35:23;;;;;;;7.63;1.38;;;;;;;16.89;64.33;98696.19;5086657;28;20035;-80
2022/07/15 07:37:49;;;;;;;3.28;1.20;;;;;;;17.02;63.53;98688.81;5089413;28;20024;-81
2022/07/15 07:40:16;;;;;;;4.60;1.10;;;;;;;17.12;63.81;98677.38;5089352;28;20062;-77
2022/07/15 07:42:45;;;;;;;6.72;1.40;;;;;;;17.24;62.35;98693.28;5085849;28;20115;-76
2022/07/15 07:45:11;;;;;;;5.32;1.20;;;;;;;17.30;62.94;98700.25;5085363;28;20039;-76
2022/07/15 07:47:40;;;;;;;5.10;1.00;;;;;;;17.36;62.38;98695.31;5089286;28;20036;-77
2022/07/15 07:50:08;;;;;;;3.22;1.33;;;;;;;17.39;62.99;98705.72;5088565;28;20032;-75
2022/07/15 07:52:34;;;;;;;4.18;1.40;;;;;;;17.36;62.68;98698.91;5087091;28;20032;-75
2022/07/15 07:55:01;;;;;;;5.45;1.40;;;;;;;17.29;62.47;98708.91;5086874;28;20035;-79
2022/07/15 07:57:26;;;;;;;2.75;1.27;;;;;;;17.30;62.76;98705.00;5088455;28;20054;-73
2022/07/15 07:59:52;;;;;;;4.05;1.10;;;;;;;17.30;62.31;98705.78;5090116;28;20064;-77
2022/07/15 08:02:17;;;;;;;7.05;2.35;;;;;;;17.31;62.05;98709.38;5092328;28;20479;-74
2022/07/15 08:04:43;;;;;;;7.78;3.72;;;;;;;17.37;61.99;98706.09;5086012;28;20464;-76
2022/07/15 08:07:08;;;;;;;5.05;1.88;;;;;;;17.50;61.13;98711.72;5088937;28;20027;-75
2022/07/15 08:09:34;;;;;;;7.03;2.13;;;;;;;17.58;60.42;98721.13;5091643;28;20480;-77
2022/07/15 08:11:59;;;;;;;5.10;1.80;;;;;;;17.65;60.14;98713.09;5071679;28;20016;-76
2022/07/15 08:14:25;;;;;;;10.43;2.50;;;;;;;17.71;60.40;98715.31;5089868;28;20028;-75
2022/07/15 08:16:51;;;;;;;2.97;1.67;;;;;;;17.91;60.14;98712.88;5089561;28;20122;-75
2022/07/15 08:19:19;;;;;;;4.30;1.30;;;;;;;18.09;59.81;98709.97;5089279;28;20063;-74
2022/07/15 08:21:44;;;;;;;2.05;1.25;;;;;;;18.19;57.76;98712.34;5087543;28;20237;-74
2022/07/15 08:24:11;;;;;;;7.03;1.50;;;;;;;18.21;57.10;98709.19;5090767;28;20498;-74
2022/07/15 08:26:37;;;;;;;3.72;1.45;;;;;;;18.23;55.81;98712.44;5072680;28;20020;-73
2022/07/15 08:29:02;;;;;;;3.55;1.50;;;;;;;18.32;57.28;98712.38;5090311;28;20036;-74
2022/07/15 08:31:28;;;;;;;3.60;1.50;;;;;;;18.47;56.20;98716.47;5090598;28;20028;-72
2022/07/15 08:33:55;;;;;;;3.00;1.30;;;;;;;18.53;56.67;98707.56;5090721;28;20059;-72
2022/07/15 08:36:20;;;;;;;4.47;2.00;;;;;;;18.70;57.25;98714.91;5090210;28;20024;-73
2022/07/15 08:38:48;;;;;;;3.50;1.48;;;;;;;18.85;56.42;98710.63;5088974;28;20027;-74
2022/07/15 08:41:15;;;;;;;6.13;1.73;;;;;;;18.96;55.88;98711.00;5088087;28;20119;-74
2022/07/15 08:43:41;;;;;;;3.15;1.40;;;;;;;19.08;56.16;98712.19;5072260;28;20027;-73
2022/07/15 08:46:08;;;;;;;4.68;1.30;;;;;;;19.19;55.74;98718.91;5072157;28;20028;-73
2022/07/15 08:48:36;;;;;;;4.70;1.50;;;;;;;19.18;54.87;98720.88;5089261;28;20060;-72
2022/07/15 08:51:05;;;;;;;2.67;1.50;;;;;;;19.26;55.26;98707.19;5088802;28;20176;-73
2022/07/15 08:53:31;;;;;;;2.00;1.30;;;;;;;19.30;54.40;98713.69;5090188;28;20030;-73
2022/07/15 08:55:58;;;;;;;3.85;1.58;;;;;;;19.39;54.81;98711.59;5090484;28;20125;-74
2022/07/15 08:58:24;;;;;;;3.00;1.20;;;;;;;19.52;53.61;98717.16;5070417;28;20024;-72
2022/07/15 09:01:07;;;;;;;3.08;1.40;;;;;;;19.51;51.89;98713.53;5087833;28;20016;-77
2022/07/15 09:03:33;;;;;;;2.08;1.15;;;;;;;19.52;51.02;98719.94;5082731;28;20054;-74
2022/07/15 09:05:58;;;;;;;1.98;1.20;;;;;;;19.40;50.85;98727.13;5067903;28;20027;-72
2022/07/15 09:08:24;;;;;;;1.95;1.20;;;;;;;19.28;52.13;98722.41;5088296;28;20082;-72
2022/07/15 09:10:58;;;;;;;3.53;1.20;;;;;;;19.16;52.36;98725.16;5088845;28;20111;-75
2022/07/15 09:13:30;;;;;;;2.63;1.10;;;;;;;19.18;52.64;98736.75;5087008;28;20081;-76
2022/07/15 09:15:57;;;;;;;3.67;1.00;;;;;;;19.28;52.59;98727.94;5086240;28;20115;-74
2022/07/15 09:18:26;;;;;;;2.35;1.10;;;;;;;19.33;53.51;98730.50;5089703;28;20039;-74
2022/07/15 09:20:52;;;;;;;2.47;0.93;;;;;;;19.47;52.99;98727.34;5086616;28;20032;-73
2022/07/15 09:23:29;;;;;;;1.00;0.60;;;;;;;19.48;50.82;98730.94;5087932;28;20027;-74
2022/07/15 09:25:55;;;;;;;2.42;0.75;;;;;;;19.38;52.18;98731.41;5089340;28;20149;-75
2022/07/15 09:28:20;;;;;;;3.42;0.77;;;;;;;19.45;51.37;98726.91;5089831;28;20075;-74
2022/07/15 09:33:39;;;;;;;1.20;0.50;;;;;;;19.68;49.92;98731.16;5073266;28;20102;-75
2022/07/15 09:36:13;;;;;;;2.58;0.70;;;;;;;19.71;47.91;98719.31;5087383;28;20118;-75
2022/07/15 09:38:49;;;;;;;2.20;0.75;;;;;;;19.55;46.91;98717.25;5087078;28;20024;-74
2022/07/15 09:41:35;;;;;;;9.95;7.15;;;;;;;19.34;46.93;98721.00;5086863;28;20052;-73
2022/07/15 09:44:08;;;;;;;2.85;1.10;;;;;;;19.24;48.04;98720.63;5070032;28;20106;-73
2022/07/15 09:46:47;;;;;;;1.55;0.70;;;;;;;19.18;48.43;98720.88;5088526;28;20070;-72
2022/07/15 09:49:17;;;;;;;1.55;0.60;;;;;;;19.24;48.84;98713.13;5087233;28;20161;-74
2022/07/15 09:51:46;;;;;;;1.67;0.60;;;;;;;19.41;47.75;98717.63;5069978;28;20132;-74
2022/07/15 09:54:12;;;;;;;3.63;0.60;;;;;;;19.54;46.95;98703.72;5086528;28;20032;-73
2022/07/15 09:56:38;;;;;;;1.38;0.50;;;;;;;19.50;47.30;98717.50;5088621;28;20110;-74
2022/07/15 09:59:04;;;;;;;4.93;0.70;;;;;;;19.45;47.79;98718.56;5088813;28;20137;-73
2022/07/15 10:01:29;;;;;;;2.70;1.13;;;;;;;19.45;47.63;98710.22;5088839;28;20499;-74
2022/07/15 10:03:56;;;;;;;1.00;0.80;;;;;;;19.57;48.19;98714.09;5087853;28;20825;-72
2022/07/15 10:06:26;;;;;;;2.45;0.63;;;;;;;19.68;48.03;98714.47;5088504;28;20509;-73
2022/07/15 10:08:53;;;;;;;3.75;1.30;;;;;;;19.76;47.83;98714.31;5089301;28;20492;-73
2022/07/15 10:11:20;;;;;;;3.55;0.57;;;;;;;19.89;47.91;98712.34;5088134;28;20039;-74
2022/07/15 10:14:23;;;;;;;1.40;0.60;;;;;;;20.08;46.64;98714.47;5087855;28;20380;-74
2022/07/15 10:17:03;;;;;;;0.70;0.43;;;;;;;20.19;46.20;98714.75;5087808;28;20059;-72
2022/07/15 10:20:04;;;;;;;1.85;0.90;;;;;;;20.09;45.63;98729.22;5085878;28;20537;-71
2022/07/15 10:22:51;;;;;;;1.10;0.40;;;;;;;19.92;44.69;98725.53;5088937;28;20058;-71
2022/07/15 10:25:51;;;;;;;2.05;0.60;;;;;;;19.89;45.21;98711.53;5086230;28;20118;-72
2022/07/15 10:28:29;;;;;;;3.42;0.63;;;;;;;19.93;45.73;98712.47;5087891;28;20115;-75
2022/07/15 10:31:28;;;;;;;1.38;0.73;;;;;;;20.00;45.23;98700.72;5085445;28;20040;-76
2022/07/15 10:34:02;;;;;;;;;;;;;;;20.12;45.02;98720.16;5066863;28;20036;-74
2022/07/15 10:36:46;;;;;;;2.80;0.80;;;;;;;20.20;44.74;98702.47;5085293;28;19924;-75
2022/07/15 10:39:12;;;;;;;2.10;0.80;;;;;;;20.30;44.49;98705.91;5086811;28;20031;-73
2022/07/15 10:42:04;;;;;;;1.33;0.60;;;;;;;20.31;44.44;98705.56;5086231;28;20488;-73
2022/07/15 10:45:11;;;;;;;2.00;0.90;;;;;;;20.33;44.40;98710.78;5084179;28;20052;-74
2022/07/15 10:47:38;;;;;;;3.88;0.80;;;;;;;20.44;44.29;98700.75;5084297;28;20032;-73
2022/07/15 10:50:37;;;;;;;1.67;0.82;;;;;;;20.67;44.74;98708.47;5086677;28;20125;-69
2022/07/15 10:53:15;;;;;;;3.33;0.90;;;;;;;20.79;44.02;98707.63;5077248;28;20044;-71
2022/07/15 10:55:41;;;;;;;4.70;1.00;;;;;;;20.72;42.91;98710.22;5088527;28;20054;-71
2022/07/15 10:58:06;;;;;;;1.63;0.80;;;;;;;20.56;42.64;98715.78;5089276;28;20473;-71
2022/07/15 11:00:34;;;;;;;1.75;0.80;;;;;;;20.36;44.01;98699.75;5087271;28;20028;-72
2022/07/15 11:03:06;;;;;;;1.52;0.80;;;;;;;20.36;43.76;98701.69;5068670;28;20068;-72
2022/07/15 11:05:32;;;;;;;4.07;0.80;;;;;;;20.38;43.78;98696.59;5085650;28;20030;-73
2022/07/15 11:07:58;;;;;;;1.83;0.93;;;;;;;20.48;42.80;98690.50;5089096;28;20094;-74
2022/07/15 11:10:24;;;;;;;2.13;0.80;;;;;;;20.57;43.66;98700.69;5086762;28;20213;-74
2022/07/15 11:12:50;;;;;;;1.50;0.73;;;;;;;20.72;43.15;98683.13;5089685;28;20491;-72
2022/07/15 11:15:17;;;;;;;1.60;0.70;;;;;;;20.94;42.84;98692.09;5089369;28;20115;-72
2022/07/15 11:17:49;;;;;;;3.92;0.98;;;;;;;21.10;42.43;98700.44;5089356;28;20043;-71
2022/07/15 11:20:27;;;;;;;2.08;0.95;;;;;;;21.12;42.02;98693.31;5088484;28;20513;-74
2022/07/15 11:22:55;;;;;;;2.08;1.20;;;;;;;20.96;41.85;98696.13;5087606;28;20722;-74
2022/07/15 11:25:41;;;;;;;2.83;1.13;;;;;;;20.88;42.41;98688.75;5085831;28;20127;-72
2022/07/15 11:28:17;;;;;;;2.85;1.35;;;;;;;20.86;42.56;98696.66;5087981;28;20499;-71
2022/07/15 11:30:53;;;;;;;2.10;0.80;;;;;;;20.93;42.36;98693.25;5082321;28;20105;-72
2022/07/15 11:33:20;;;;;;;2.00;1.20;;;;;;;20.98;42.98;98684.63;5071624;28;20043;-72
2022/07/15 11:35:52;;;;;;;2.20;1.00;;;;;;;21.10;42.30;98690.09;5092515;28;20027;-71
2022/07/15 11:38:22;;;;;;;1.45;0.98;;;;;;;21.12;41.12;98690.53;5090642;28;20020;-73